createdAt,value
2022-12-03T00:02:30.462Z,41.67
2022-12-03T00:10:12.633Z,41.57
2022-12-03T00:17:41.765Z,41.55
2022-12-03T00:25:10.181Z,41.44
2022-12-03T00:32:28.804Z,41.23
2022-12-03T00:39:45.373Z,41.12
2022-12-03T00:46:21.671Z,40.52
2022-12-03T00:52:43.851Z,40.33
2022-12-03T00:59:09.710Z,40.25
2022-12-03T01:05:36.384Z,40.15
2022-12-03T01:12:06.315Z,40.21
2022-12-03T01:18:28.247Z,40.06
2022-12-03T01:25:00.237Z,40.03
2022-12-03T01:31:30.480Z,40.03
2022-12-03T01:38:04.025Z,39.97
2022-12-03T01:44:39.492Z,39.98
2022-12-03T01:51:23.364Z,40.08
2022-12-03T01:57:56.858Z,39.99
2022-12-03T02:04:30.470Z,40.06
2022-12-03T02:11:11.388Z,40.19
2022-12-03T02:17:46.591Z,39.98
2022-12-03T02:24:25.741Z,40
2022-12-03T02:31:01.915Z,40.14
2022-12-03T02:37:32.354Z,40.12
2022-12-03T02:44:22.155Z,40.14
2022-12-03T02:51:09.748Z,39.94
2022-12-03T02:57:41.768Z,40.02
2022-12-03T03:04:22.587Z,39.8
2022-12-03T03:10:54.667Z,39.78
2022-12-03T03:17:28.242Z,39.9
2022-12-03T03:23:57.785Z,39.85
2022-12-03T03:30:38.897Z,39.7
2022-12-03T03:37:09.796Z,39.91
2022-12-03T03:43:41.743Z,39.74
2022-12-03T03:50:07.809Z,39.84
2022-12-03T03:56:46.812Z,39.83
2022-12-03T04:03:20.621Z,39.75
2022-12-03T04:09:47.699Z,39.82
2022-12-03T04:16:13.897Z,39.79
2022-12-03T04:22:39.577Z,39.88
2022-12-03T04:29:10.425Z,39.81
2022-12-03T04:35:42.707Z,39.91
2022-12-03T04:42:13.762Z,39.83
2022-12-03T04:48:45.801Z,39.99
2022-12-03T04:55:15.973Z,40.01
2022-12-03T05:01:44.981Z,40.11
2022-12-03T05:08:12.940Z,40.05
2022-12-03T05:14:41.581Z,39.22
2022-12-03T05:21:07.823Z,38.04
2022-12-03T05:27:33.452Z,37.59
2022-12-03T05:34:01.918Z,37.11
2022-12-03T05:40:25.493Z,36.88
2022-12-03T05:46:55.784Z,36.9
2022-12-03T05:53:23.584Z,37.15
2022-12-03T05:59:52.601Z,36.91
2022-12-03T06:06:26.742Z,37.14
2022-12-03T06:12:52.486Z,37.18
2022-12-03T06:19:16.658Z,37.49
2022-12-03T06:25:45.469Z,37.27
2022-12-03T06:32:16.015Z,37.4
2022-12-03T06:38:43.718Z,37.39
2022-12-03T06:45:09.016Z,37.69
2022-12-03T06:51:33.856Z,37.91
2022-12-03T06:58:00.718Z,38.12
2022-12-03T07:04:31.522Z,38.16
2022-12-03T07:11:03.808Z,38.07
2022-12-03T07:17:34.651Z,38.14
2022-12-03T07:24:05.894Z,38.19
2022-12-03T07:30:29.928Z,38.04
2022-12-03T07:36:55.532Z,38.18
2022-12-03T07:43:21.511Z,37.69
2022-12-03T07:49:45.966Z,38.24
2022-12-03T07:56:09.897Z,38.55
2022-12-03T08:02:37.964Z,38.74
2022-12-03T08:09:16.697Z,38.95
2022-12-03T08:15:49.885Z,38.85
2022-12-03T08:22:30.579Z,38.57
2022-12-03T08:29:17.924Z,38.36
2022-12-03T08:35:59.814Z,38.33
2022-12-03T08:42:49.882Z,38.2
2022-12-03T08:49:41.931Z,37.88
2022-12-03T08:56:41.428Z,39.12
2022-12-03T09:03:52.358Z,39.2
2022-12-03T09:10:32.537Z,38.78
2022-12-03T09:16:56.913Z,38.36
2022-12-03T09:23:19.644Z,38.01
2022-12-03T09:29:41.964Z,37.9
2022-12-03T09:36:07.797Z,38.01
2022-12-03T09:42:32.567Z,38.3
2022-12-03T09:49:04.160Z,38.15
2022-12-03T09:55:51.701Z,38.15
2022-12-03T10:02:28.850Z,38.53
2022-12-03T10:08:57.963Z,38.48
2022-12-03T10:15:28.738Z,37.95
2022-12-03T10:22:13.581Z,37.89
2022-12-03T10:29:01.567Z,37.66
2022-12-03T10:35:51.663Z,37.92
2022-12-03T10:42:41.537Z,37.88
2022-12-03T10:49:15.224Z,38.09
2022-12-03T10:55:51.708Z,38.42
2022-12-03T11:02:30.023Z,38.31
2022-12-03T11:09:18.031Z,38.48
2022-12-03T11:16:11.961Z,38.52
2022-12-03T11:23:09.968Z,38.04
2022-12-03T11:29:46.802Z,37.79
2022-12-03T11:37:00.987Z,38.25
2022-12-03T11:43:49.512Z,37.86
2022-12-03T11:50:39.559Z,38.02
2022-12-03T11:57:21.978Z,38.11
2022-12-03T12:04:18.740Z,38.23
2022-12-03T12:11:01.519Z,38.45
2022-12-03T12:17:48.524Z,38.5
2022-12-03T12:24:44.808Z,38.68
2022-12-03T12:31:36.279Z,38.64
2022-12-03T12:38:21.668Z,38.69
2022-12-03T12:45:05.128Z,38.68
2022-12-03T12:51:50.924Z,38.58
2022-12-03T12:58:42.610Z,38.47
2022-12-03T13:05:40.046Z,38.44
2022-12-03T13:12:19.717Z,38.51
2022-12-03T13:19:15.950Z,38.51
2022-12-03T13:26:29.394Z,38.56
2022-12-03T13:33:17.665Z,38.56
2022-12-03T13:39:56.369Z,38.25
2022-12-03T13:46:40.091Z,38.56
2022-12-03T13:53:28.049Z,38.69
2022-12-03T14:00:08.851Z,38.8
2022-12-03T14:06:39.672Z,38.68
2022-12-03T14:13:04.949Z,38.53
2022-12-03T14:19:45.726Z,38.54
2022-12-03T14:26:08.605Z,38.53
2022-12-03T14:32:39.636Z,38.46
2022-12-03T14:39:10.785Z,38.53
2022-12-03T14:45:41.530Z,38.42
2022-12-03T14:52:13.260Z,38.36
2022-12-03T14:58:36.699Z,38.55
2022-12-03T15:05:04.767Z,38.38
2022-12-03T15:11:35.934Z,38.31
2022-12-03T15:18:07.703Z,38.01
2022-12-03T15:24:42.106Z,38.3
2022-12-03T15:31:12.710Z,38.58
2022-12-03T15:37:42.115Z,38.5
2022-12-03T15:44:10.928Z,38.76
2022-12-03T15:50:40.620Z,38.76
2022-12-03T15:57:08.053Z,38.78
2022-12-03T16:03:38.311Z,38.72
2022-12-03T16:10:14.109Z,38.94
2022-12-03T16:16:39.301Z,39.01
2022-12-03T16:23:10.227Z,38.65
2022-12-03T16:29:38.697Z,38.9
2022-12-03T16:36:02.883Z,39.02
2022-12-03T16:42:48.465Z,38.97
2022-12-03T16:49:18.751Z,38.97
2022-12-03T16:55:51.864Z,39.07
2022-12-03T17:02:19.960Z,39.17
2022-12-03T17:08:49.797Z,39.14
2022-12-03T17:15:21.694Z,39.13
2022-12-03T17:21:39.867Z,39.21
2022-12-03T17:28:01.076Z,39.1
2022-12-03T17:34:28.962Z,39.12
2022-12-03T17:41:00.304Z,39.05
2022-12-03T17:47:23.582Z,39.03
2022-12-03T17:53:54.647Z,39.11
2022-12-03T18:00:18.973Z,39.12
2022-12-03T18:06:50.183Z,39.22
2022-12-03T18:13:23.351Z,39.03
2022-12-03T18:19:59.455Z,39.03
2022-12-03T18:26:39.845Z,39.06
2022-12-03T18:33:11.594Z,39.04
2022-12-03T18:39:43.839Z,38.56
2022-12-03T18:53:06.144Z,38.32
2022-12-03T18:59:54.631Z,38.08
2022-12-03T19:06:28.206Z,38.31
2022-12-03T19:13:02.203Z,38.27
2022-12-03T19:19:30.945Z,38.3
2022-12-03T19:26:00.198Z,38.05
2022-12-03T19:32:31.766Z,38.22
2022-12-03T19:39:05.856Z,37.97
2022-12-03T19:45:35.334Z,38.56
2022-12-03T19:52:09.839Z,38.57
2022-12-03T19:58:42.218Z,38.39
2022-12-03T20:05:19.107Z,38.4
2022-12-03T20:11:58.914Z,38.87
2022-12-03T20:18:37.156Z,38.89
2022-12-03T20:25:02.624Z,38.82
2022-12-03T20:31:31.987Z,38.76
2022-12-03T20:37:54.757Z,38.88
2022-12-03T20:44:25.429Z,38.91
2022-12-03T20:50:59.044Z,38.93
2022-12-03T20:57:31.865Z,38.58
2022-12-03T21:04:04.090Z,38.83
2022-12-03T21:10:32.055Z,39
2022-12-03T21:17:35.247Z,38.37
2022-12-03T21:24:12.530Z,38.89
2022-12-03T21:30:47.175Z,38.74
2022-12-03T21:37:12.544Z,39.06
2022-12-03T21:43:39.920Z,39.12
2022-12-03T21:50:18.861Z,38.39
2022-12-03T21:56:57.080Z,38.79
2022-12-03T22:03:25.524Z,38.66
2022-12-03T22:09:54.838Z,38.96
2022-12-03T22:16:31.185Z,38.57
2022-12-03T22:23:07.128Z,38.27
2022-12-03T22:29:42.698Z,38.67
2022-12-03T22:36:20.357Z,38.31
2022-12-03T22:42:58.408Z,38.38
2022-12-03T22:49:24.852Z,38.33
2022-12-03T22:55:59.020Z,38.19
2022-12-03T23:02:34.449Z,38.06
2022-12-03T23:08:57.956Z,38.3
2022-12-03T23:15:31.360Z,38.15
2022-12-03T23:22:10.093Z,38.2
2022-12-03T23:28:40.060Z,38.64
2022-12-03T23:35:09.115Z,38.97
2022-12-03T23:41:41.217Z,39.01
2022-12-03T23:48:09.015Z,39.08
2022-12-03T23:54:35.943Z,39.03
